• Join FlightAware (Why Join?)
  • Login
  • US Flag 
10:15PM EST


 

Airport Tracker/Info


-or-


 

Live Flight TrackerFlight Track Log ✈ AWE3921 ✈ 04-Apr-2013 ✈ KMHT - KDCA

Flight Track Log - Related Links

Times and Time Zones

All times are in EDT time to prevent confusion due to time zone crossing. See the AWE3921 flight status page for this flight to view local times or setup timezone preferences in your user account.

Time Position Orientation Groundspeed Altitude Reporting Facility
EDT Latitude Longitude Course Direction KTS MPH feet Rate Location/Type
12:09PM 42.9333 -71.4500 202° Southwest 152 175 900  Level KA90
12:09PM 42.9167 -71.4833 236° Southwest 160 184 2,200 2,400 Climbing KA90
12:10PM 42.9383 -71.4986 333° Northwest 223 257 3,500 2,580 Climbing Boston Center
12:11PM 43.0502 -71.0993 65° Northeast  Level FlightAware Approximate
12:11PM 42.9733 -71.4442 49° Northeast 223 257 6,100  Level Boston Center
12:12PM 43.0809 -70.9797 132° Southeast  Level FlightAware Approximate
12:12PM 42.9994 -71.3414 71° East 262 302 8,100  Level Boston Center
12:13PM 43.0106 -70.8939 144° Southeast  Level FlightAware Approximate
12:13PM 43.0256 -71.2444 70° East 284 327 9,800  Level Boston Center
12:14PM 42.9269 -70.8981 202° Southwest  Level FlightAware Approximate
12:14PM 43.0575 -71.1189 71° East 314 361 12,400  Level Boston Center
12:15PM 43.0750 -71.0075 78° East 321 369 14,400 1,980 Climbing Boston Center
12:16PM 43.0069 -70.9011 131° Southeast 307 353 16,400 1,740 Climbing Boston Center
12:17PM 42.9258 -70.9144 187° South 264 304 17,900 1,560 Climbing Boston Center
12:18PM 42.8408 -70.9536 199° South 290 334 19,600 1,680 Climbing Boston Center
12:19PM 42.7539 -70.9953 199° South 303 349 21,400 1,500 Climbing Boston Center
12:20PM 42.6814 -71.0308 200° South 322 371 22,700 1,500 Climbing Boston Center
12:21PM 42.5717 -71.0869 201° Southwest 349 402 24,400 1,140 Climbing Boston Center
12:22PM 42.5186 -71.1867 234° Southwest 335 386 25,000 240 Climbing Boston Center
12:23PM 42.4761 -71.3028 244° Southwest 336 387 25,000 420 Level Boston Center
12:24PM 42.4333 -71.4217 244° Southwest 346 398 25,900 840 Climbing Boston Center
12:25PM 42.3925 -71.5319 243° Southwest 346 398 26,800 960 Climbing Boston Center
12:26PM 42.3372 -71.6619 240° Southwest 352 405 27,900 600 Climbing Boston Center
12:27PM 42.2922 -71.7806 243° Southwest 352 405 28,000  Climbing Boston Center
12:28PM 42.2469 -71.9017 243° Southwest 358 412 28,000  Level Boston Center
12:29PM 42.2017 -72.0197 243° Southwest 358 412 28,000  Level Boston Center
12:30PM 42.1583 -72.1292 242° Southwest 353 406 28,000  Level Boston Center
12:31PM 42.1189 -72.2331 243° Southwest 330 380 28,000  Level Boston Center
12:32PM 42.0836 -72.3197 241° Southwest 316 364 28,000  Level Boston Center
12:33PM 42.0439 -72.4206 242° Southwest 304 350 28,000  Level Boston Center
12:34PM 42.0086 -72.5211 245° Southwest 304 350 28,000  Level Boston Center
12:35PM 41.9667 -72.6161 239° Southwest 304 350 28,000  Level Boston Center
12:36PM 41.9186 -72.7164 237° Southwest 293 337 28,000  Level Boston Center
12:37PM 41.8536 -72.8108 227° Southwest 317 365 28,000  Level Boston Center
12:38PM 41.7931 -72.8939 226° Southwest 344 396 28,000  Level Boston Center
12:39PM 41.7281 -72.9825 226° Southwest 349 402 28,000  Level Boston Center
12:40PM 41.6589 -73.0736 225° Southwest 349 402 28,000  Level Boston Center
12:41PM 41.5936 -73.1644 226° Southwest 349 402 28,000  Level Boston Center
12:42PM 41.5200 -73.2636 225° Southwest 349 402 28,000  Level Boston Center
12:43PM 41.4506 -73.3567 225° Southwest 349 402 28,000  Level Boston Center
12:44PM 41.3808 -73.4497 225° Southwest 354 407 28,000  Level Boston Center
12:46PM 41.2281 -73.6761 228° Southwest 361 415 28,000  Level New York Center
12:47PM 41.1669 -73.7808 232° Southwest 361 415 28,000  Level New York Center
12:48PM 41.1061 -73.8800 231° Southwest 361 415 28,000  Level New York Center
12:49PM 41.0450 -73.9817 231° Southwest 361 415 28,000  Level New York Center
12:50PM 40.9839 -74.0861 232° Southwest 361 415 28,000  Level New York Center
12:51PM 40.9247 -74.1847 232° Southwest 361 415 28,000  Level New York Center
12:52PM 40.8614 -74.2831 230° Southwest 361 415 28,000  Level New York Center
12:53PM 40.8000 -74.3842 231° Southwest 361 415 28,000  Level New York Center
12:54PM 40.7386 -74.4875 232° Southwest 361 415 28,000  Level New York Center
12:55PM 40.6792 -74.5856 231° Southwest 361 415 28,000  Level New York Center
12:56PM 40.6197 -74.6836 231° Southwest 361 415 28,000  Level New York Center
12:57PM 40.5581 -74.7811 230° Southwest 361 415 28,000 -300 Level New York Center
12:58PM 40.4925 -74.8728 227° Southwest 356 410 27,500 -1,260 Descending New York Center
12:59PM 40.4289 -74.9617 227° Southwest 351 404 25,500 -2,040 Descending New York Center
01:00PM 40.3586 -75.0608 227° Southwest 344 396 23,500 -2,040 Descending New York Center
01:01PM 40.3008 -75.1581 232° Southwest 357 411 21,500 -1,800 Descending New York Center
01:02PM 40.2800 -75.2683 256° West 322 371 20,000 -1,140 Descending New York Center
01:03PM 40.2592 -75.3756 256° West 312 359 19,300 -1,020 Descending New York Center
01:04PM 40.2239 -75.4794 246° West 312 359 18,000 -660 Descending New York Center
01:05PM 40.1622 -75.5567 224° Southwest 303 349 18,000  Level New York Center
01:06PM 40.0944 -75.6389 223° Southwest 321 369 18,000  Level New York Center
01:07PM 40.0328 -75.7131 223° Southwest 339 390 18,000  Level New York Center
01:08PM 39.9647 -75.7978 224° Southwest 339 390 18,000  Level New York Center
01:09PM 39.8922 -75.8819 222° Southwest 332 382 18,000  Level New York Center
01:10PM 39.8261 -75.9636 224° Southwest 326 375 18,000  Level New York Center
01:11PM 39.7667 -76.0347 223° Southwest 326 375 18,000  Level New York Center
01:12PM 39.7028 -76.1136 224° Southwest 326 375 18,000 -660 Level New York Center
01:13PM 39.6319 -76.2025 224° Southwest 326 375 16,700 -1,320 Descending New York Center
01:14PM 39.5697 -76.2814 224° Southwest 321 369 15,400 -1,620 Descending New York Center
01:15PM 39.5333 -76.3333 228° Southwest 309 356 14,200 -1,860 Descending Potomac TRACON
01:16PM 39.4667 -76.4167 224° Southwest 309 356 12,300 -1,140 Descending Potomac TRACON
01:17PM 39.3833 -76.4667 205° Southwest 288 331 11,900 -300 Descending Potomac TRACON
01:18PM 39.3167 -76.5333 218° Southwest 310 357 11,700 -600 Descending Potomac TRACON
01:19PM 39.2500 -76.6000 218° Southwest 293 337 10,700 -900 Descending Potomac TRACON
01:20PM 39.1833 -76.6500 210° Southwest 264 304 9,900 -420 Descending Potomac TRACON
01:21PM 39.1333 -76.7000 218° Southwest 271 312 9,900 -360 Level Potomac TRACON
01:22PM 39.0833 -76.7667 226° Southwest 276 318 9,200 -1,140 Descending Potomac TRACON
01:23PM 39.0167 -76.8333 218° Southwest 256 295 7,700 -1,500 Descending Potomac TRACON
01:24PM 38.9667 -76.9167 232° Southwest 281 323 6,200 -900 Descending Potomac TRACON
01:25PM 38.9833 -77.0000 284° West 257 296 6,000 -660 Descending Potomac TRACON
01:26PM 39.0167 -77.0667 303° West 234 269 4,900 -1,200 Descending Potomac TRACON
01:27PM 39.0500 -77.1333 303° West 230 265 3,600 -960 Descending Potomac TRACON
01:28PM 39.0333 -77.1833 247° West 207 238 3,000 -600 Descending Potomac TRACON